sensor_id;sensor_type;location;lat;lon;timestamp;P1;durP1;ratioP1;P2;durP2;ratioP2
43933;SDS011;59081;42.706;23.306;2023-04-03T00:00:43;6.78;;;3.90;;
43933;SDS011;59081;42.706;23.306;2023-04-03T00:03:08;6.53;;;3.35;;
43933;SDS011;59081;42.706;23.306;2023-04-03T00:05:34;7.32;;;3.78;;
43933;SDS011;59081;42.706;23.306;2023-04-03T00:08:00;10.30;;;4.80;;
43933;SDS011;59081;42.706;23.306;2023-04-03T00:10:27;13.70;;;4.70;;
43933;SDS011;59081;42.706;23.306;2023-04-03T00:12:53;11.88;;;5.90;;
43933;SDS011;59081;42.706;23.306;2023-04-03T00:15:21;16.65;;;6.00;;
43933;SDS011;59081;42.706;23.306;2023-04-03T00:17:46;13.05;;;6.15;;
43933;SDS011;59081;42.706;23.306;2023-04-03T00:20:12;14.32;;;6.55;;
43933;SDS011;59081;42.706;23.306;2023-04-03T00:22:37;13.13;;;6.30;;
43933;SDS011;59081;42.706;23.306;2023-04-03T00:25:03;14.88;;;7.40;;
43933;SDS011;59081;42.706;23.306;2023-04-03T00:27:29;13.05;;;6.80;;
43933;SDS011;59081;42.706;23.306;2023-04-03T00:29:55;13.70;;;6.85;;
43933;SDS011;59081;42.706;23.306;2023-04-03T00:32:21;11.57;;;6.88;;
43933;SDS011;59081;42.706;23.306;2023-04-03T00:34:49;17.17;;;7.53;;
43933;SDS011;59081;42.706;23.306;2023-04-03T00:37:15;16.02;;;7.30;;
43933;SDS011;59081;42.706;23.306;2023-04-03T00:39:43;14.85;;;7.00;;
43933;SDS011;59081;42.706;23.306;2023-04-03T00:42:09;11.95;;;6.28;;
43933;SDS011;59081;42.706;23.306;2023-04-03T00:47:03;11.50;;;6.22;;
43933;SDS011;59081;42.706;23.306;2023-04-03T00:49:32;13.20;;;6.57;;
43933;SDS011;59081;42.706;23.306;2023-04-03T00:51:58;12.63;;;6.55;;
43933;SDS011;59081;42.706;23.306;2023-04-03T00:54:26;12.05;;;6.00;;
43933;SDS011;59081;42.706;23.306;2023-04-03T00:56:52;10.05;;;6.20;;
43933;SDS011;59081;42.706;23.306;2023-04-03T00:59:24;11.10;;;6.05;;
43933;SDS011;59081;42.706;23.306;2023-04-03T01:01:55;13.52;;;5.40;;
43933;SDS011;59081;42.706;23.306;2023-04-03T01:06:58;13.80;;;5.93;;
43933;SDS011;59081;42.706;23.306;2023-04-03T01:09:27;10.55;;;5.45;;
43933;SDS011;59081;42.706;23.306;2023-04-03T01:11:54;11.73;;;5.35;;
43933;SDS011;59081;42.706;23.306;2023-04-03T01:14:19;7.00;;;3.70;;
43933;SDS011;59081;42.706;23.306;2023-04-03T01:16:52;9.38;;;4.68;;
43933;SDS011;59081;42.706;23.306;2023-04-03T01:19:22;10.48;;;5.60;;
43933;SDS011;59081;42.706;23.306;2023-04-03T01:24:58;8.95;;;3.33;;
43933;SDS011;59081;42.706;23.306;2023-04-03T01:27:23;5.15;;;3.05;;
43933;SDS011;59081;42.706;23.306;2023-04-03T01:29:49;9.98;;;4.03;;
43933;SDS011;59081;42.706;23.306;2023-04-03T01:32:15;7.70;;;3.17;;
43933;SDS011;59081;42.706;23.306;2023-04-03T01:34:40;5.53;;;3.10;;
43933;SDS011;59081;42.706;23.306;2023-04-03T01:37:06;5.85;;;2.95;;
43933;SDS011;59081;42.706;23.306;2023-04-03T01:39:34;3.88;;;2.33;;
43933;SDS011;59081;42.706;23.306;2023-04-03T01:42:00;7.22;;;2.78;;
43933;SDS011;59081;42.706;23.306;2023-04-03T01:44:26;4.35;;;3.00;;
43933;SDS011;59081;42.706;23.306;2023-04-03T01:46:51;6.00;;;3.05;;
43933;SDS011;59081;42.706;23.306;2023-04-03T01:49:17;4.97;;;2.67;;
43933;SDS011;59081;42.706;23.306;2023-04-03T01:51:43;3.97;;;2.60;;
43933;SDS011;59081;42.706;23.306;2023-04-03T01:54:08;7.30;;;3.45;;
43933;SDS011;59081;42.706;23.306;2023-04-03T01:56:34;6.00;;;2.47;;
43933;SDS011;59081;42.706;23.306;2023-04-03T01:59:00;5.57;;;2.72;;
43933;SDS011;59081;42.706;23.306;2023-04-03T02:01:26;4.68;;;3.08;;
43933;SDS011;59081;42.706;23.306;2023-04-03T02:03:54;4.53;;;2.80;;
43933;SDS011;59081;42.706;23.306;2023-04-03T02:06:20;4.78;;;2.55;;
43933;SDS011;59081;42.706;23.306;2023-04-03T02:08:46;6.32;;;2.72;;
43933;SDS011;59081;42.706;23.306;2023-04-03T02:11:11;4.93;;;2.65;;
43933;SDS011;59081;42.706;23.306;2023-04-03T02:13:37;5.88;;;3.35;;
43933;SDS011;59081;42.706;23.306;2023-04-03T02:16:08;6.55;;;2.70;;
43933;SDS011;59081;42.706;23.306;2023-04-03T02:18:35;5.32;;;2.90;;
43933;SDS011;59081;42.706;23.306;2023-04-03T02:21:00;4.28;;;2.42;;
43933;SDS011;59081;42.706;23.306;2023-04-03T02:23:26;3.42;;;2.28;;
43933;SDS011;59081;42.706;23.306;2023-04-03T02:26:01;4.68;;;2.42;;
43933;SDS011;59081;42.706;23.306;2023-04-03T02:28:35;6.68;;;2.35;;
43933;SDS011;59081;42.706;23.306;2023-04-03T02:31:00;4.05;;;2.40;;
43933;SDS011;59081;42.706;23.306;2023-04-03T02:33:26;3.38;;;2.08;;
43933;SDS011;59081;42.706;23.306;2023-04-03T02:35:52;5.70;;;2.55;;
43933;SDS011;59081;42.706;23.306;2023-04-03T02:38:22;3.00;;;2.05;;
43933;SDS011;59081;42.706;23.306;2023-04-03T02:40:48;3.15;;;2.00;;
43933;SDS011;59081;42.706;23.306;2023-04-03T02:43:14;3.42;;;2.45;;
43933;SDS011;59081;42.706;23.306;2023-04-03T02:45:42;4.60;;;2.72;;
43933;SDS011;59081;42.706;23.306;2023-04-03T02:48:08;6.68;;;2.88;;
43933;SDS011;59081;42.706;23.306;2023-04-03T02:50:33;4.03;;;2.40;;
43933;SDS011;59081;42.706;23.306;2023-04-03T02:52:59;5.35;;;3.10;;
43933;SDS011;59081;42.706;23.306;2023-04-03T02:55:25;5.60;;;2.72;;
43933;SDS011;59081;42.706;23.306;2023-04-03T02:57:53;7.72;;;3.38;;
43933;SDS011;59081;42.706;23.306;2023-04-03T03:00:19;7.80;;;4.05;;
43933;SDS011;59081;42.706;23.306;2023-04-03T03:02:45;7.20;;;3.03;;
43933;SDS011;59081;42.706;23.306;2023-04-03T03:05:10;9.13;;;3.67;;
43933;SDS011;59081;42.706;23.306;2023-04-03T03:07:38;8.35;;;3.63;;
43933;SDS011;59081;42.706;23.306;2023-04-03T03:10:04;7.63;;;3.70;;
43933;SDS011;59081;42.706;23.306;2023-04-03T03:12:32;7.97;;;3.83;;
43933;SDS011;59081;42.706;23.306;2023-04-03T03:15:00;6.85;;;3.92;;
43933;SDS011;59081;42.706;23.306;2023-04-03T03:17:26;6.13;;;3.90;;
43933;SDS011;59081;42.706;23.306;2023-04-03T03:19:51;7.43;;;4.57;;
43933;SDS011;59081;42.706;23.306;2023-04-03T03:22:17;9.02;;;4.15;;
43933;SDS011;59081;42.706;23.306;2023-04-03T03:24:42;7.85;;;3.85;;
43933;SDS011;59081;42.706;23.306;2023-04-03T03:27:08;14.98;;;5.90;;
43933;SDS011;59081;42.706;23.306;2023-04-03T03:29:34;11.95;;;5.97;;
43933;SDS011;59081;42.706;23.306;2023-04-03T03:32:01;9.88;;;5.32;;
43933;SDS011;59081;42.706;23.306;2023-04-03T03:34:27;10.95;;;5.10;;
43933;SDS011;59081;42.706;23.306;2023-04-03T03:36:56;11.85;;;5.35;;
43933;SDS011;59081;42.706;23.306;2023-04-03T03:39:21;9.90;;;5.00;;
43933;SDS011;59081;42.706;23.306;2023-04-03T03:41:47;13.15;;;5.15;;
43933;SDS011;59081;42.706;23.306;2023-04-03T03:44:14;12.98;;;5.10;;
43933;SDS011;59081;42.706;23.306;2023-04-03T03:46:40;14.60;;;5.85;;
43933;SDS011;59081;42.706;23.306;2023-04-03T03:49:05;13.77;;;6.10;;
43933;SDS011;59081;42.706;23.306;2023-04-03T03:51:31;12.57;;;5.72;;
43933;SDS011;59081;42.706;23.306;2023-04-03T03:53:56;12.40;;;5.55;;
43933;SDS011;59081;42.706;23.306;2023-04-03T03:56:25;11.75;;;5.28;;
43933;SDS011;59081;42.706;23.306;2023-04-03T03:58:51;10.43;;;5.78;;
43933;SDS011;59081;42.706;23.306;2023-04-03T04:01:17;20.38;;;7.03;;
43933;SDS011;59081;42.706;23.306;2023-04-03T04:03:43;11.27;;;5.38;;
43933;SDS011;59081;42.706;23.306;2023-04-03T04:06:08;14.30;;;6.35;;
43933;SDS011;59081;42.706;23.306;2023-04-03T04:08:34;18.05;;;7.97;;
43933;SDS011;59081;42.706;23.306;2023-04-03T04:11:00;15.07;;;7.40;;
43933;SDS011;59081;42.706;23.306;2023-04-03T04:13:25;19.15;;;7.07;;
43933;SDS011;59081;42.706;23.306;2023-04-03T04:15:51;14.65;;;7.57;;
43933;SDS011;59081;42.706;23.306;2023-04-03T04:18:16;13.77;;;6.75;;
43933;SDS011;59081;42.706;23.306;2023-04-03T04:20:46;15.50;;;6.55;;
43933;SDS011;59081;42.706;23.306;2023-04-03T04:23:12;17.90;;;6.85;;
43933;SDS011;59081;42.706;23.306;2023-04-03T04:25:37;14.15;;;6.85;;
43933;SDS011;59081;42.706;23.306;2023-04-03T04:28:03;16.30;;;6.75;;
43933;SDS011;59081;42.706;23.306;2023-04-03T04:30:29;13.38;;;7.07;;
43933;SDS011;59081;42.706;23.306;2023-04-03T04:32:54;14.95;;;8.25;;
43933;SDS011;59081;42.706;23.306;2023-04-03T04:35:21;20.88;;;8.23;;
43933;SDS011;59081;42.706;23.306;2023-04-03T04:37:46;18.02;;;8.13;;
43933;SDS011;59081;42.706;23.306;2023-04-03T04:40:12;19.42;;;8.02;;
43933;SDS011;59081;42.706;23.306;2023-04-03T04:42:38;20.97;;;9.07;;
43933;SDS011;59081;42.706;23.306;2023-04-03T04:45:04;18.83;;;8.45;;
43933;SDS011;59081;42.706;23.306;2023-04-03T04:47:30;19.02;;;7.63;;
43933;SDS011;59081;42.706;23.306;2023-04-03T04:49:56;23.17;;;9.15;;
43933;SDS011;59081;42.706;23.306;2023-04-03T04:52:22;25.42;;;12.82;;
43933;SDS011;59081;42.706;23.306;2023-04-03T04:54:48;19.08;;;9.73;;
43933;SDS011;59081;42.706;23.306;2023-04-03T04:57:13;19.85;;;9.10;;
43933;SDS011;59081;42.706;23.306;2023-04-03T04:59:39;42.47;;;9.15;;
43933;SDS011;59081;42.706;23.306;2023-04-03T05:02:05;28.73;;;9.40;;
43933;SDS011;59081;42.706;23.306;2023-04-03T05:04:31;23.95;;;11.07;;
43933;SDS011;59081;42.706;23.306;2023-04-03T05:06:58;27.63;;;11.65;;
43933;SDS011;59081;42.706;23.306;2023-04-03T05:09:25;24.95;;;11.05;;
43933;SDS011;59081;42.706;23.306;2023-04-03T05:11:50;22.17;;;11.23;;
43933;SDS011;59081;42.706;23.306;2023-04-03T05:14:16;24.42;;;9.88;;
43933;SDS011;59081;42.706;23.306;2023-04-03T05:16:45;24.88;;;12.65;;
43933;SDS011;59081;42.706;23.306;2023-04-03T05:19:20;21.70;;;10.45;;
43933;SDS011;59081;42.706;23.306;2023-04-03T05:21:54;21.35;;;9.88;;
43933;SDS011;59081;42.706;23.306;2023-04-03T05:26:56;26.23;;;10.98;;
43933;SDS011;59081;42.706;23.306;2023-04-03T05:29:28;19.42;;;10.90;;
43933;SDS011;59081;42.706;23.306;2023-04-03T05:31:57;24.08;;;10.70;;
43933;SDS011;59081;42.706;23.306;2023-04-03T05:34:30;23.08;;;10.00;;
43933;SDS011;59081;42.706;23.306;2023-04-03T05:37:05;24.05;;;11.70;;
43933;SDS011;59081;42.706;23.306;2023-04-03T05:39:37;18.27;;;11.73;;
43933;SDS011;59081;42.706;23.306;2023-04-03T05:42:08;27.88;;;11.43;;
43933;SDS011;59081;42.706;23.306;2023-04-03T05:47:14;25.25;;;12.90;;
43933;SDS011;59081;42.706;23.306;2023-04-03T05:49:44;23.95;;;13.25;;
43933;SDS011;59081;42.706;23.306;2023-04-03T05:55:05;27.45;;;10.98;;
43933;SDS011;59081;42.706;23.306;2023-04-03T05:57:37;22.58;;;11.50;;
43933;SDS011;59081;42.706;23.306;2023-04-03T06:00:17;18.92;;;10.00;;
43933;SDS011;59081;42.706;23.306;2023-04-03T06:02:55;24.67;;;11.60;;
43933;SDS011;59081;42.706;23.306;2023-04-03T06:08:00;21.85;;;10.75;;
43933;SDS011;59081;42.706;23.306;2023-04-03T06:10:34;27.42;;;11.15;;
43933;SDS011;59081;42.706;23.306;2023-04-03T06:13:06;28.50;;;11.63;;
43933;SDS011;59081;42.706;23.306;2023-04-03T06:15:39;16.58;;;9.45;;
43933;SDS011;59081;42.706;23.306;2023-04-03T06:18:12;18.95;;;8.52;;
43933;SDS011;59081;42.706;23.306;2023-04-03T06:20:53;17.40;;;8.80;;
43933;SDS011;59081;42.706;23.306;2023-04-03T06:23:30;14.82;;;8.52;;
43933;SDS011;59081;42.706;23.306;2023-04-03T06:26:05;13.98;;;7.22;;
43933;SDS011;59081;42.706;23.306;2023-04-03T06:28:32;13.10;;;8.23;;
43933;SDS011;59081;42.706;23.306;2023-04-03T06:31:00;24.08;;;8.85;;
43933;SDS011;59081;42.706;23.306;2023-04-03T06:33:29;18.98;;;12.60;;
43933;SDS011;59081;42.706;23.306;2023-04-03T06:35:56;25.30;;;11.50;;
43933;SDS011;59081;42.706;23.306;2023-04-03T06:38:30;20.63;;;11.90;;
43933;SDS011;59081;42.706;23.306;2023-04-03T06:41:05;23.15;;;10.63;;
43933;SDS011;59081;42.706;23.306;2023-04-03T06:43:32;26.45;;;11.25;;
43933;SDS011;59081;42.706;23.306;2023-04-03T06:46:00;23.25;;;12.48;;
43933;SDS011;59081;42.706;23.306;2023-04-03T06:48:29;25.67;;;11.63;;
43933;SDS011;59081;42.706;23.306;2023-04-03T06:50:57;38.53;;;11.15;;
43933;SDS011;59081;42.706;23.306;2023-04-03T06:53:27;20.45;;;10.57;;
43933;SDS011;59081;42.706;23.306;2023-04-03T06:55:53;21.38;;;10.70;;
43933;SDS011;59081;42.706;23.306;2023-04-03T06:58:21;24.90;;;10.45;;
43933;SDS011;59081;42.706;23.306;2023-04-03T07:00:53;20.13;;;12.15;;
43933;SDS011;59081;42.706;23.306;2023-04-03T07:03:19;20.15;;;10.55;;
43933;SDS011;59081;42.706;23.306;2023-04-03T07:05:45;21.23;;;11.90;;
43933;SDS011;59081;42.706;23.306;2023-04-03T07:08:11;17.23;;;9.98;;
43933;SDS011;59081;42.706;23.306;2023-04-03T07:10:37;23.98;;;11.25;;
43933;SDS011;59081;42.706;23.306;2023-04-03T07:13:03;20.20;;;10.93;;
43933;SDS011;59081;42.706;23.306;2023-04-03T07:15:32;18.13;;;10.95;;
43933;SDS011;59081;42.706;23.306;2023-04-03T07:17:58;20.10;;;10.32;;
43933;SDS011;59081;42.706;23.306;2023-04-03T07:20:26;15.32;;;9.95;;
43933;SDS011;59081;42.706;23.306;2023-04-03T07:22:56;28.42;;;12.07;;
43933;SDS011;59081;42.706;23.306;2023-04-03T07:25:22;25.73;;;10.38;;
43933;SDS011;59081;42.706;23.306;2023-04-03T07:27:54;20.88;;;10.98;;
43933;SDS011;59081;42.706;23.306;2023-04-03T07:30:22;21.45;;;10.68;;
43933;SDS011;59081;42.706;23.306;2023-04-03T07:32:51;22.45;;;10.93;;
43933;SDS011;59081;42.706;23.306;2023-04-03T07:35:17;24.55;;;10.55;;
43933;SDS011;59081;42.706;23.306;2023-04-03T07:37:43;13.63;;;8.68;;
43933;SDS011;59081;42.706;23.306;2023-04-03T07:40:09;21.85;;;10.02;;
43933;SDS011;59081;42.706;23.306;2023-04-03T07:42:36;22.35;;;9.80;;
43933;SDS011;59081;42.706;23.306;2023-04-03T07:45:05;18.48;;;10.82;;
43933;SDS011;59081;42.706;23.306;2023-04-03T07:47:34;26.42;;;9.55;;
43933;SDS011;59081;42.706;23.306;2023-04-03T07:50:00;21.95;;;10.85;;
43933;SDS011;59081;42.706;23.306;2023-04-03T07:52:25;31.20;;;11.32;;
43933;SDS011;59081;42.706;23.306;2023-04-03T07:54:51;22.85;;;11.23;;
43933;SDS011;59081;42.706;23.306;2023-04-03T07:57:17;18.70;;;10.55;;
43933;SDS011;59081;42.706;23.306;2023-04-03T07:59:43;17.02;;;9.73;;
43933;SDS011;59081;42.706;23.306;2023-04-03T08:02:09;20.70;;;10.40;;
43933;SDS011;59081;42.706;23.306;2023-04-03T08:04:45;13.93;;;8.82;;
43933;SDS011;59081;42.706;23.306;2023-04-03T08:07:16;14.07;;;8.10;;
43933;SDS011;59081;42.706;23.306;2023-04-03T08:09:42;19.67;;;7.82;;
43933;SDS011;59081;42.706;23.306;2023-04-03T08:12:09;16.85;;;8.02;;
43933;SDS011;59081;42.706;23.306;2023-04-03T08:14:36;14.73;;;8.13;;
43933;SDS011;59081;42.706;23.306;2023-04-03T08:17:02;13.60;;;8.32;;
43933;SDS011;59081;42.706;23.306;2023-04-03T08:19:39;19.95;;;8.10;;
43933;SDS011;59081;42.706;23.306;2023-04-03T08:22:07;20.15;;;9.30;;
43933;SDS011;59081;42.706;23.306;2023-04-03T08:24:42;16.92;;;8.05;;
43933;SDS011;59081;42.706;23.306;2023-04-03T08:27:14;18.05;;;8.60;;
43933;SDS011;59081;42.706;23.306;2023-04-03T08:29:39;19.48;;;8.82;;
43933;SDS011;59081;42.706;23.306;2023-04-03T08:32:05;13.80;;;8.55;;
43933;SDS011;59081;42.706;23.306;2023-04-03T08:34:31;17.55;;;8.38;;
43933;SDS011;59081;42.706;23.306;2023-04-03T08:37:00;19.75;;;9.43;;
43933;SDS011;59081;42.706;23.306;2023-04-03T08:39:26;17.13;;;9.52;;
43933;SDS011;59081;42.706;23.306;2023-04-03T08:41:52;15.38;;;8.45;;
43933;SDS011;59081;42.706;23.306;2023-04-03T08:44:28;16.80;;;9.88;;
43933;SDS011;59081;42.706;23.306;2023-04-03T08:49:48;21.55;;;9.70;;
43933;SDS011;59081;42.706;23.306;2023-04-03T08:52:19;17.73;;;10.05;;
43933;SDS011;59081;42.706;23.306;2023-04-03T08:54:54;22.52;;;10.82;;
43933;SDS011;59081;42.706;23.306;2023-04-03T08:57:40;18.35;;;10.20;;
43933;SDS011;59081;42.706;23.306;2023-04-03T09:00:17;23.92;;;10.43;;
43933;SDS011;59081;42.706;23.306;2023-04-03T09:02:46;22.92;;;10.68;;
43933;SDS011;59081;42.706;23.306;2023-04-03T09:13:55;21.25;;;10.02;;
43933;SDS011;59081;42.706;23.306;2023-04-03T09:21:56;22.40;;;12.35;;
43933;SDS011;59081;42.706;23.306;2023-04-03T09:24:26;24.45;;;11.85;;
43933;SDS011;59081;42.706;23.306;2023-04-03T09:29:27;18.20;;;10.45;;
43933;SDS011;59081;42.706;23.306;2023-04-03T09:32:00;19.33;;;10.27;;
43933;SDS011;59081;42.706;23.306;2023-04-03T09:34:30;19.00;;;10.23;;
43933;SDS011;59081;42.706;23.306;2023-04-03T09:37:04;22.33;;;9.82;;
43933;SDS011;59081;42.706;23.306;2023-04-03T09:39:51;20.65;;;11.73;;
43933;SDS011;59081;42.706;23.306;2023-04-03T09:42:22;20.98;;;11.82;;
43933;SDS011;59081;42.706;23.306;2023-04-03T09:44:55;24.95;;;13.57;;
43933;SDS011;59081;42.706;23.306;2023-04-03T09:52:37;23.23;;;13.35;;
43933;SDS011;59081;42.706;23.306;2023-04-03T09:58:40;16.48;;;10.43;;
43933;SDS011;59081;42.706;23.306;2023-04-03T10:01:08;20.20;;;11.13;;
43933;SDS011;59081;42.706;23.306;2023-04-03T10:03:49;21.45;;;9.90;;
43933;SDS011;59081;42.706;23.306;2023-04-03T10:06:36;18.73;;;9.32;;
43933;SDS011;59081;42.706;23.306;2023-04-03T10:12:06;22.75;;;10.93;;
43933;SDS011;59081;42.706;23.306;2023-04-03T10:14:37;22.05;;;11.68;;
43933;SDS011;59081;42.706;23.306;2023-04-03T10:25:04;17.70;;;11.10;;
43933;SDS011;59081;42.706;23.306;2023-04-03T10:30:36;17.02;;;9.02;;
43933;SDS011;59081;42.706;23.306;2023-04-03T10:38:48;9.48;;;6.45;;
43933;SDS011;59081;42.706;23.306;2023-04-03T10:44:15;15.35;;;6.00;;
43933;SDS011;59081;42.706;23.306;2023-04-03T10:47:02;15.05;;;6.22;;
43933;SDS011;59081;42.706;23.306;2023-04-03T10:52:24;12.00;;;6.78;;
43933;SDS011;59081;42.706;23.306;2023-04-03T10:57:50;9.52;;;5.53;;
43933;SDS011;59081;42.706;23.306;2023-04-03T11:00:20;9.93;;;5.05;;
43933;SDS011;59081;42.706;23.306;2023-04-03T11:02:52;9.13;;;4.88;;
43933;SDS011;59081;42.706;23.306;2023-04-03T11:05:26;8.80;;;3.55;;
43933;SDS011;59081;42.706;23.306;2023-04-03T11:07:54;9.13;;;4.13;;
43933;SDS011;59081;42.706;23.306;2023-04-03T11:16:04;8.63;;;4.78;;
43933;SDS011;59081;42.706;23.306;2023-04-03T11:18:41;8.88;;;4.70;;
43933;SDS011;59081;42.706;23.306;2023-04-03T11:21:36;6.53;;;4.28;;
43933;SDS011;59081;42.706;23.306;2023-04-03T11:24:31;2.70;;;1.58;;
43933;SDS011;59081;42.706;23.306;2023-04-03T11:26:58;18.80;;;4.43;;
43933;SDS011;59081;42.706;23.306;2023-04-03T11:29:37;8.25;;;3.38;;
43933;SDS011;59081;42.706;23.306;2023-04-03T11:34:56;5.30;;;2.30;;
43933;SDS011;59081;42.706;23.306;2023-04-03T11:37:38;8.20;;;3.10;;
43933;SDS011;59081;42.706;23.306;2023-04-03T11:40:30;5.55;;;3.30;;
43933;SDS011;59081;42.706;23.306;2023-04-03T11:56:30;4.20;;;2.83;;
43933;SDS011;59081;42.706;23.306;2023-04-03T12:05:26;5.95;;;3.08;;
43933;SDS011;59081;42.706;23.306;2023-04-03T12:22:06;3.38;;;2.15;;
43933;SDS011;59081;42.706;23.306;2023-04-03T12:24:42;5.15;;;3.58;;
43933;SDS011;59081;42.706;23.306;2023-04-03T12:27:24;5.60;;;3.53;;
43933;SDS011;59081;42.706;23.306;2023-04-03T12:30:34;5.25;;;3.65;;
43933;SDS011;59081;42.706;23.306;2023-04-03T12:33:38;7.10;;;4.93;;
43933;SDS011;59081;42.706;23.306;2023-04-03T12:36:38;3.38;;;2.53;;
43933;SDS011;59081;42.706;23.306;2023-04-03T12:45:44;10.20;;;3.55;;
43933;SDS011;59081;42.706;23.306;2023-04-03T12:48:24;3.65;;;2.95;;
43933;SDS011;59081;42.706;23.306;2023-04-03T12:50:59;6.22;;;3.42;;
43933;SDS011;59081;42.706;23.306;2023-04-03T12:53:30;6.63;;;4.00;;
43933;SDS011;59081;42.706;23.306;2023-04-03T13:02:02;4.85;;;3.83;;
43933;SDS011;59081;42.706;23.306;2023-04-03T13:04:37;9.60;;;5.30;;
43933;SDS011;59081;42.706;23.306;2023-04-03T13:07:23;17.45;;;6.88;;
43933;SDS011;59081;42.706;23.306;2023-04-03T13:12:50;7.00;;;4.82;;
43933;SDS011;59081;42.706;23.306;2023-04-03T13:18:35;9.48;;;6.53;;
43933;SDS011;59081;42.706;23.306;2023-04-03T13:24:10;7.53;;;4.10;;
43933;SDS011;59081;42.706;23.306;2023-04-03T13:27:16;11.80;;;7.60;;
43933;SDS011;59081;42.706;23.306;2023-04-03T13:41:53;12.23;;;9.85;;
43933;SDS011;59081;42.706;23.306;2023-04-03T13:44:36;15.63;;;11.05;;
43933;SDS011;59081;42.706;23.306;2023-04-03T13:52:22;11.18;;;7.80;;
43933;SDS011;59081;42.706;23.306;2023-04-03T13:54:55;11.55;;;7.03;;
43933;SDS011;59081;42.706;23.306;2023-04-03T13:57:24;5.82;;;4.55;;
43933;SDS011;59081;42.706;23.306;2023-04-03T13:59:49;10.70;;;6.82;;
43933;SDS011;59081;42.706;23.306;2023-04-03T14:02:17;9.82;;;7.05;;
43933;SDS011;59081;42.706;23.306;2023-04-03T14:04:52;9.15;;;6.25;;
43933;SDS011;59081;42.706;23.306;2023-04-03T14:07:23;11.20;;;6.72;;
43933;SDS011;59081;42.706;23.306;2023-04-03T14:09:52;10.75;;;7.53;;
43933;SDS011;59081;42.706;23.306;2023-04-03T14:14:56;13.85;;;8.45;;
43933;SDS011;59081;42.706;23.306;2023-04-03T14:17:24;11.57;;;8.57;;
43933;SDS011;59081;42.706;23.306;2023-04-03T14:19:51;19.55;;;11.85;;
43933;SDS011;59081;42.706;23.306;2023-04-03T14:22:25;18.42;;;11.93;;
43933;SDS011;59081;42.706;23.306;2023-04-03T14:25:01;10.77;;;7.78;;
43933;SDS011;59081;42.706;23.306;2023-04-03T14:27:29;11.18;;;7.10;;
43933;SDS011;59081;42.706;23.306;2023-04-03T14:29:59;8.65;;;6.05;;
43933;SDS011;59081;42.706;23.306;2023-04-03T14:32:27;8.68;;;6.32;;
43933;SDS011;59081;42.706;23.306;2023-04-03T14:34:56;11.20;;;6.00;;
43933;SDS011;59081;42.706;23.306;2023-04-03T14:37:24;7.15;;;5.05;;
43933;SDS011;59081;42.706;23.306;2023-04-03T14:39:55;7.93;;;6.50;;
43933;SDS011;59081;42.706;23.306;2023-04-03T14:42:24;7.72;;;5.63;;
43933;SDS011;59081;42.706;23.306;2023-04-03T14:44:52;13.68;;;7.65;;
43933;SDS011;59081;42.706;23.306;2023-04-03T14:47:22;11.95;;;6.63;;
43933;SDS011;59081;42.706;23.306;2023-04-03T14:49:54;7.70;;;5.53;;
43933;SDS011;59081;42.706;23.306;2023-04-03T14:52:28;9.55;;;6.15;;
43933;SDS011;59081;42.706;23.306;2023-04-03T14:55:07;9.30;;;6.40;;
43933;SDS011;59081;42.706;23.306;2023-04-03T14:57:33;8.27;;;5.47;;
43933;SDS011;59081;42.706;23.306;2023-04-03T15:00:00;8.55;;;5.82;;
43933;SDS011;59081;42.706;23.306;2023-04-03T15:05:56;10.65;;;5.18;;
43933;SDS011;59081;42.706;23.306;2023-04-03T15:08:26;7.50;;;5.00;;
43933;SDS011;59081;42.706;23.306;2023-04-03T15:10:59;10.30;;;5.80;;
43933;SDS011;59081;42.706;23.306;2023-04-03T15:13:26;10.68;;;6.65;;
43933;SDS011;59081;42.706;23.306;2023-04-03T15:15:52;10.27;;;6.07;;
43933;SDS011;59081;42.706;23.306;2023-04-03T15:18:19;6.28;;;4.45;;
43933;SDS011;59081;42.706;23.306;2023-04-03T15:20:47;6.63;;;4.25;;
43933;SDS011;59081;42.706;23.306;2023-04-03T15:23:14;5.72;;;3.22;;
43933;SDS011;59081;42.706;23.306;2023-04-03T15:25:41;7.50;;;4.85;;
43933;SDS011;59081;42.706;23.306;2023-04-03T15:28:09;4.80;;;4.00;;
43933;SDS011;59081;42.706;23.306;2023-04-03T15:30:56;7.40;;;4.85;;
43933;SDS011;59081;42.706;23.306;2023-04-03T15:33:22;5.38;;;4.35;;
43933;SDS011;59081;42.706;23.306;2023-04-03T15:35:48;9.52;;;5.22;;
43933;SDS011;59081;42.706;23.306;2023-04-03T15:38:14;6.57;;;4.45;;
43933;SDS011;59081;42.706;23.306;2023-04-03T15:40:40;6.43;;;3.83;;
43933;SDS011;59081;42.706;23.306;2023-04-03T15:43:07;5.55;;;3.72;;
43933;SDS011;59081;42.706;23.306;2023-04-03T15:45:33;11.32;;;6.82;;
43933;SDS011;59081;42.706;23.306;2023-04-03T15:48:02;9.07;;;5.78;;
43933;SDS011;59081;42.706;23.306;2023-04-03T15:50:38;4.55;;;2.83;;
43933;SDS011;59081;42.706;23.306;2023-04-03T15:53:05;6.95;;;4.22;;
43933;SDS011;59081;42.706;23.306;2023-04-03T15:55:34;7.22;;;5.32;;
43933;SDS011;59081;42.706;23.306;2023-04-03T15:58:04;7.25;;;5.13;;
43933;SDS011;59081;42.706;23.306;2023-04-03T16:00:30;7.18;;;5.55;;
43933;SDS011;59081;42.706;23.306;2023-04-03T16:03:08;8.02;;;4.80;;
43933;SDS011;59081;42.706;23.306;2023-04-03T16:05:41;8.65;;;5.68;;
43933;SDS011;59081;42.706;23.306;2023-04-03T16:08:07;4.38;;;3.25;;
43933;SDS011;59081;42.706;23.306;2023-04-03T16:10:33;12.93;;;6.68;;
43933;SDS011;59081;42.706;23.306;2023-04-03T16:13:03;7.28;;;5.10;;
43933;SDS011;59081;42.706;23.306;2023-04-03T16:15:30;9.60;;;6.10;;
43933;SDS011;59081;42.706;23.306;2023-04-03T16:20:31;8.75;;;5.95;;
43933;SDS011;59081;42.706;23.306;2023-04-03T16:22:58;10.65;;;7.57;;
43933;SDS011;59081;42.706;23.306;2023-04-03T16:25:30;14.52;;;7.45;;
43933;SDS011;59081;42.706;23.306;2023-04-03T16:27:59;14.13;;;9.30;;
43933;SDS011;59081;42.706;23.306;2023-04-03T16:30:47;12.40;;;8.32;;
43933;SDS011;59081;42.706;23.306;2023-04-03T16:39:02;12.50;;;7.80;;
43933;SDS011;59081;42.706;23.306;2023-04-03T16:41:28;12.15;;;7.50;;
43933;SDS011;59081;42.706;23.306;2023-04-03T16:43:57;14.50;;;9.05;;
43933;SDS011;59081;42.706;23.306;2023-04-03T16:46:28;12.70;;;8.40;;
43933;SDS011;59081;42.706;23.306;2023-04-03T16:49:15;12.60;;;6.75;;
43933;SDS011;59081;42.706;23.306;2023-04-03T16:54:22;11.25;;;7.80;;
43933;SDS011;59081;42.706;23.306;2023-04-03T16:57:05;7.40;;;4.03;;
43933;SDS011;59081;42.706;23.306;2023-04-03T17:00:03;9.05;;;6.25;;
43933;SDS011;59081;42.706;23.306;2023-04-03T17:02:33;7.75;;;5.72;;
43933;SDS011;59081;42.706;23.306;2023-04-03T17:05:13;10.90;;;6.20;;
43933;SDS011;59081;42.706;23.306;2023-04-03T17:07:39;8.98;;;5.68;;
43933;SDS011;59081;42.706;23.306;2023-04-03T17:10:06;3.40;;;3.03;;
43933;SDS011;59081;42.706;23.306;2023-04-03T17:12:32;9.00;;;5.68;;
43933;SDS011;59081;42.706;23.306;2023-04-03T17:14:58;6.45;;;2.80;;
43933;SDS011;59081;42.706;23.306;2023-04-03T17:17:37;10.05;;;5.25;;
43933;SDS011;59081;42.706;23.306;2023-04-03T17:20:04;9.13;;;5.28;;
43933;SDS011;59081;42.706;23.306;2023-04-03T17:28:16;7.25;;;3.33;;
43933;SDS011;59081;42.706;23.306;2023-04-03T17:30:46;7.85;;;5.38;;
43933;SDS011;59081;42.706;23.306;2023-04-03T17:33:13;7.47;;;3.83;;
43933;SDS011;59081;42.706;23.306;2023-04-03T17:35:52;6.63;;;4.63;;
43933;SDS011;59081;42.706;23.306;2023-04-03T17:38:21;4.55;;;3.58;;